sensor_id;sensor_type;location;lat;lon;timestamp;pressure;altitude;pressure_sealevel;temperature;humidity
61524;BME280;47393;38.758;-9.164;2022-11-20T00:02:07;101472.91;;;11.06;100.00
61524;BME280;47393;38.758;-9.164;2022-11-20T00:04:13;101476.19;;;11.10;100.00
61524;BME280;47393;38.758;-9.164;2022-11-20T00:06:15;101477.44;;;11.04;100.00
61524;BME280;47393;38.758;-9.164;2022-11-20T00:08:23;101464.13;;;10.93;100.00
61524;BME280;47393;38.758;-9.164;2022-11-20T00:10:23;101458.41;;;10.86;100.00
61524;BME280;47393;38.758;-9.164;2022-11-20T00:12:31;101467.56;;;10.80;100.00
61524;BME280;47393;38.758;-9.164;2022-11-20T00:14:38;101464.75;;;10.83;100.00
61524;BME280;47393;38.758;-9.164;2022-11-20T00:16:38;101469.97;;;10.98;100.00
61524;BME280;47393;38.758;-9.164;2022-11-20T00:18:45;101470.00;;;11.11;100.00
61524;BME280;47393;38.758;-9.164;2022-11-20T00:20:45;101465.69;;;11.22;100.00
61524;BME280;47393;38.758;-9.164;2022-11-20T00:22:52;101458.66;;;11.36;100.00
61524;BME280;47393;38.758;-9.164;2022-11-20T00:25:00;101459.19;;;11.41;100.00
61524;BME280;47393;38.758;-9.164;2022-11-20T00:27:07;101465.63;;;11.50;100.00
61524;BME280;47393;38.758;-9.164;2022-11-20T00:29:08;101464.25;;;11.57;100.00
61524;BME280;47393;38.758;-9.164;2022-11-20T00:31:16;101463.53;;;11.68;100.00
61524;BME280;47393;38.758;-9.164;2022-11-20T00:33:16;101455.81;;;11.77;100.00
61524;BME280;47393;38.758;-9.164;2022-11-20T00:35:24;101458.88;;;11.84;100.00
61524;BME280;47393;38.758;-9.164;2022-11-20T00:37:31;101461.09;;;11.90;100.00
61524;BME280;47393;38.758;-9.164;2022-11-20T00:39:38;101460.03;;;11.93;100.00
61524;BME280;47393;38.758;-9.164;2022-11-20T00:41:45;101457.63;;;11.90;100.00
61524;BME280;47393;38.758;-9.164;2022-11-20T00:43:52;101459.00;;;11.83;100.00
61524;BME280;47393;38.758;-9.164;2022-11-20T00:45:59;101464.69;;;11.76;100.00
61524;BME280;47393;38.758;-9.164;2022-11-20T00:48:07;101460.69;;;11.71;100.00
61524;BME280;47393;38.758;-9.164;2022-11-20T00:50:07;101456.47;;;11.68;100.00
61524;BME280;47393;38.758;-9.164;2022-11-20T00:52:15;101456.69;;;11.65;100.00
61524;BME280;47393;38.758;-9.164;2022-11-20T00:54:15;101455.41;;;11.71;100.00
61524;BME280;47393;38.758;-9.164;2022-11-20T00:56:23;101449.50;;;11.67;100.00
61524;BME280;47393;38.758;-9.164;2022-11-20T00:58:24;101449.00;;;11.62;100.00
61524;BME280;47393;38.758;-9.164;2022-11-20T01:00:32;101449.19;;;11.59;100.00
61524;BME280;47393;38.758;-9.164;2022-11-20T01:02:32;101439.06;;;11.53;100.00
61524;BME280;47393;38.758;-9.164;2022-11-20T01:04:39;101447.19;;;11.50;100.00
61524;BME280;47393;38.758;-9.164;2022-11-20T01:06:39;101453.09;;;11.53;100.00
61524;BME280;47393;38.758;-9.164;2022-11-20T01:08:47;101451.31;;;11.54;100.00
61524;BME280;47393;38.758;-9.164;2022-11-20T01:10:58;101456.25;;;11.46;100.00
61524;BME280;47393;38.758;-9.164;2022-11-20T01:13:05;101445.81;;;11.44;100.00
61524;BME280;47393;38.758;-9.164;2022-11-20T01:15:33;101452.22;;;11.40;100.00
61524;BME280;47393;38.758;-9.164;2022-11-20T01:17:33;101442.75;;;11.37;100.00
61524;BME280;47393;38.758;-9.164;2022-11-20T01:19:41;101441.06;;;11.36;100.00
61524;BME280;47393;38.758;-9.164;2022-11-20T01:21:48;101448.22;;;11.34;100.00
61524;BME280;47393;38.758;-9.164;2022-11-20T01:23:56;101440.94;;;11.25;100.00
61524;BME280;47393;38.758;-9.164;2022-11-20T01:25:56;101441.06;;;11.23;100.00
61524;BME280;47393;38.758;-9.164;2022-11-20T01:28:04;101448.63;;;11.28;100.00
61524;BME280;47393;38.758;-9.164;2022-11-20T01:30:11;101447.84;;;11.53;100.00
61524;BME280;47393;38.758;-9.164;2022-11-20T01:32:18;101449.94;;;11.61;100.00
61524;BME280;47393;38.758;-9.164;2022-11-20T01:34:25;101440.00;;;11.65;100.00
61524;BME280;47393;38.758;-9.164;2022-11-20T01:36:32;101437.47;;;11.63;100.00
61524;BME280;47393;38.758;-9.164;2022-11-20T01:38:33;101435.59;;;11.52;100.00
61524;BME280;47393;38.758;-9.164;2022-11-20T01:40:40;101433.19;;;11.49;100.00
61524;BME280;47393;38.758;-9.164;2022-11-20T01:42:44;101434.44;;;11.43;100.00
61524;BME280;47393;38.758;-9.164;2022-11-20T01:45:00;101428.63;;;11.38;100.00
61524;BME280;47393;38.758;-9.164;2022-11-20T01:47:01;101427.47;;;11.42;100.00
61524;BME280;47393;38.758;-9.164;2022-11-20T01:49:16;101421.66;;;11.63;100.00
61524;BME280;47393;38.758;-9.164;2022-11-20T01:53:35;101418.75;;;11.55;100.00
61524;BME280;47393;38.758;-9.164;2022-11-20T01:55:45;101418.63;;;11.31;100.00
61524;BME280;47393;38.758;-9.164;2022-11-20T01:57:55;101427.66;;;11.14;100.00
61524;BME280;47393;38.758;-9.164;2022-11-20T02:00:09;101431.13;;;11.14;100.00
61524;BME280;47393;38.758;-9.164;2022-11-20T02:02:12;101431.34;;;11.11;100.00
61524;BME280;47393;38.758;-9.164;2022-11-20T02:04:20;101427.41;;;11.04;100.00
61524;BME280;47393;38.758;-9.164;2022-11-20T02:06:24;101428.88;;;10.95;100.00
61524;BME280;47393;38.758;-9.164;2022-11-20T02:08:32;101426.25;;;10.95;100.00
61524;BME280;47393;38.758;-9.164;2022-11-20T02:10:40;101423.72;;;10.94;100.00
61524;BME280;47393;38.758;-9.164;2022-11-20T02:12:40;101422.69;;;10.96;100.00
61524;BME280;47393;38.758;-9.164;2022-11-20T02:15:06;101416.44;;;10.97;100.00
61524;BME280;47393;38.758;-9.164;2022-11-20T02:17:13;101417.59;;;10.93;100.00
61524;BME280;47393;38.758;-9.164;2022-11-20T02:19:30;101418.25;;;10.97;100.00
61524;BME280;47393;38.758;-9.164;2022-11-20T02:21:40;101414.25;;;11.04;100.00
61524;BME280;47393;38.758;-9.164;2022-11-20T02:24:04;101407.06;;;10.93;100.00
61524;BME280;47393;38.758;-9.164;2022-11-20T02:26:12;101404.31;;;10.82;100.00
61524;BME280;47393;38.758;-9.164;2022-11-20T02:28:14;101410.53;;;10.81;100.00
61524;BME280;47393;38.758;-9.164;2022-11-20T02:30:22;101409.88;;;10.77;100.00
61524;BME280;47393;38.758;-9.164;2022-11-20T02:32:30;101410.53;;;10.81;100.00
61524;BME280;47393;38.758;-9.164;2022-11-20T02:34:31;101405.97;;;10.83;100.00
61524;BME280;47393;38.758;-9.164;2022-11-20T02:36:38;101409.28;;;10.86;100.00
61524;BME280;47393;38.758;-9.164;2022-11-20T02:38:39;101408.84;;;10.93;100.00
61524;BME280;47393;38.758;-9.164;2022-11-20T02:40:46;101397.59;;;10.90;100.00
61524;BME280;47393;38.758;-9.164;2022-11-20T02:42:56;101401.16;;;10.89;100.00
61524;BME280;47393;38.758;-9.164;2022-11-20T02:44:56;101404.84;;;10.87;100.00
61524;BME280;47393;38.758;-9.164;2022-11-20T02:47:04;101401.13;;;10.77;100.00
61524;BME280;47393;38.758;-9.164;2022-11-20T02:49:04;101397.16;;;10.84;100.00
61524;BME280;47393;38.758;-9.164;2022-11-20T02:51:12;101397.56;;;10.78;100.00
61524;BME280;47393;38.758;-9.164;2022-11-20T02:53:19;101390.19;;;10.83;100.00
61524;BME280;47393;38.758;-9.164;2022-11-20T02:55:26;101392.72;;;10.84;100.00
61524;BME280;47393;38.758;-9.164;2022-11-20T02:57:33;101408.72;;;10.81;100.00
61524;BME280;47393;38.758;-9.164;2022-11-20T02:59:33;101404.94;;;10.85;100.00
61524;BME280;47393;38.758;-9.164;2022-11-20T03:01:41;101402.84;;;10.78;100.00
61524;BME280;47393;38.758;-9.164;2022-11-20T03:03:48;101405.47;;;10.78;100.00
61524;BME280;47393;38.758;-9.164;2022-11-20T03:05:55;101408.94;;;10.78;100.00
61524;BME280;47393;38.758;-9.164;2022-11-20T03:08:02;101411.25;;;10.83;100.00
61524;BME280;47393;38.758;-9.164;2022-11-20T03:10:09;101413.19;;;10.94;100.00
61524;BME280;47393;38.758;-9.164;2022-11-20T03:12:16;101407.06;;;10.93;100.00
61524;BME280;47393;38.758;-9.164;2022-11-20T03:14:23;101414.94;;;10.93;100.00
61524;BME280;47393;38.758;-9.164;2022-11-20T03:16:30;101415.59;;;10.97;100.00
61524;BME280;47393;38.758;-9.164;2022-11-20T03:18:38;101407.06;;;10.93;100.00
61524;BME280;47393;38.758;-9.164;2022-11-20T03:20:45;101401.88;;;10.79;100.00
61524;BME280;47393;38.758;-9.164;2022-11-20T03:22:45;101400.59;;;10.71;100.00
61524;BME280;47393;38.758;-9.164;2022-11-20T03:24:53;101404.69;;;10.76;100.00
61524;BME280;47393;38.758;-9.164;2022-11-20T03:27:00;101400.94;;;10.80;100.00
61524;BME280;47393;38.758;-9.164;2022-11-20T03:29:01;101397.88;;;10.86;100.00
61524;BME280;47393;38.758;-9.164;2022-11-20T03:31:08;101401.91;;;10.91;100.00
61524;BME280;47393;38.758;-9.164;2022-11-20T03:33:16;101397.69;;;10.89;100.00
61524;BME280;47393;38.758;-9.164;2022-11-20T03:35:30;101392.03;;;10.95;100.00
61524;BME280;47393;38.758;-9.164;2022-11-20T03:37:31;101387.94;;;11.04;100.00
61524;BME280;47393;38.758;-9.164;2022-11-20T03:39:38;101382.25;;;11.10;100.00
61524;BME280;47393;38.758;-9.164;2022-11-20T03:41:45;101386.66;;;11.10;100.00
61524;BME280;47393;38.758;-9.164;2022-11-20T03:43:52;101378.13;;;11.06;100.00
61524;BME280;47393;38.758;-9.164;2022-11-20T03:45:53;101380.34;;;10.99;100.00
61524;BME280;47393;38.758;-9.164;2022-11-20T03:48:00;101387.19;;;11.02;100.00
61524;BME280;47393;38.758;-9.164;2022-11-20T03:50:07;101361.69;;;10.89;100.00
61524;BME280;47393;38.758;-9.164;2022-11-20T03:52:08;101384.59;;;11.15;100.00
61524;BME280;47393;38.758;-9.164;2022-11-20T03:54:15;101383.63;;;11.16;100.00
61524;BME280;47393;38.758;-9.164;2022-11-20T03:56:23;101379.50;;;11.24;100.00
61524;BME280;47393;38.758;-9.164;2022-11-20T03:58:30;101378.88;;;11.21;100.00
61524;BME280;47393;38.758;-9.164;2022-11-20T04:00:30;101382.47;;;11.20;100.00
61524;BME280;47393;38.758;-9.164;2022-11-20T04:02:38;101374.06;;;11.28;100.00
61524;BME280;47393;38.758;-9.164;2022-11-20T04:04:38;101369.63;;;11.28;100.00
61524;BME280;47393;38.758;-9.164;2022-11-20T04:06:46;101366.34;;;11.37;100.00
61524;BME280;47393;38.758;-9.164;2022-11-20T04:08:46;101370.06;;;11.48;100.00
61524;BME280;47393;38.758;-9.164;2022-11-20T04:10:54;101362.88;;;11.50;100.00
61524;BME280;47393;38.758;-9.164;2022-11-20T04:13:01;101359.69;;;11.45;100.00
61524;BME280;47393;38.758;-9.164;2022-11-20T04:15:08;101358.66;;;11.34;100.00
61524;BME280;47393;38.758;-9.164;2022-11-20T04:17:08;101360.47;;;11.21;100.00
61524;BME280;47393;38.758;-9.164;2022-11-20T04:19:16;101355.41;;;11.18;100.00
61524;BME280;47393;38.758;-9.164;2022-11-20T04:21:23;101348.31;;;11.05;100.00
61524;BME280;47393;38.758;-9.164;2022-11-20T04:23:24;101350.63;;;10.97;100.00
61524;BME280;47393;38.758;-9.164;2022-11-20T04:25:32;101351.47;;;10.85;100.00
61524;BME280;47393;38.758;-9.164;2022-11-20T04:27:39;101353.13;;;10.86;100.00
61524;BME280;47393;38.758;-9.164;2022-11-20T04:29:46;101344.72;;;10.81;100.00
61524;BME280;47393;38.758;-9.164;2022-11-20T04:31:52;101351.25;;;10.88;100.00
61524;BME280;47393;38.758;-9.164;2022-11-20T04:34:00;101348.50;;;10.77;100.00
61524;BME280;47393;38.758;-9.164;2022-11-20T04:36:18;101344.38;;;10.72;100.00
61524;BME280;47393;38.758;-9.164;2022-11-20T04:38:25;101337.53;;;10.70;100.00
61524;BME280;47393;38.758;-9.164;2022-11-20T04:40:32;101340.56;;;10.64;100.00
61524;BME280;47393;38.758;-9.164;2022-11-20T04:42:39;101338.97;;;10.61;100.00
61524;BME280;47393;38.758;-9.164;2022-11-20T04:44:46;101337.94;;;10.64;100.00
61524;BME280;47393;38.758;-9.164;2022-11-20T04:46:46;101339.19;;;10.58;100.00
61524;BME280;47393;38.758;-9.164;2022-11-20T04:48:53;101341.81;;;10.58;100.00
61524;BME280;47393;38.758;-9.164;2022-11-20T04:50:54;101333.31;;;10.54;100.00
61524;BME280;47393;38.758;-9.164;2022-11-20T04:53:01;101337.41;;;10.71;100.00
61524;BME280;47393;38.758;-9.164;2022-11-20T04:55:08;101340.75;;;11.01;100.00
61524;BME280;47393;38.758;-9.164;2022-11-20T04:57:08;101329.34;;;11.13;100.00
61524;BME280;47393;38.758;-9.164;2022-11-20T04:59:16;101341.47;;;11.03;100.00
61524;BME280;47393;38.758;-9.164;2022-11-20T05:01:23;101353.91;;;11.01;100.00
61524;BME280;47393;38.758;-9.164;2022-11-20T05:03:24;101352.78;;;11.18;100.00
61524;BME280;47393;38.758;-9.164;2022-11-20T05:05:31;101353.06;;;11.39;100.00
61524;BME280;47393;38.758;-9.164;2022-11-20T05:07:33;101346.72;;;11.67;100.00
61524;BME280;47393;38.758;-9.164;2022-11-20T05:09:40;101346.81;;;11.78;100.00
61524;BME280;47393;38.758;-9.164;2022-11-20T05:11:54;101346.34;;;11.98;100.00
61524;BME280;47393;38.758;-9.164;2022-11-20T05:14:14;101343.91;;;12.07;100.00
61524;BME280;47393;38.758;-9.164;2022-11-20T05:16:17;101342.97;;;12.08;100.00
61524;BME280;47393;38.758;-9.164;2022-11-20T05:18:24;101349.06;;;12.09;100.00
61524;BME280;47393;38.758;-9.164;2022-11-20T05:20:31;101333.25;;;12.09;100.00
61524;BME280;47393;38.758;-9.164;2022-11-20T05:22:31;101340.56;;;12.05;100.00
61524;BME280;47393;38.758;-9.164;2022-11-20T05:24:38;101359.63;;;12.09;100.00
61524;BME280;47393;38.758;-9.164;2022-11-20T05:26:45;101354.34;;;12.09;100.00
61524;BME280;47393;38.758;-9.164;2022-11-20T05:28:52;101353.56;;;11.96;100.00
61524;BME280;47393;38.758;-9.164;2022-11-20T05:30:52;101346.81;;;11.78;100.00
61524;BME280;47393;38.758;-9.164;2022-11-20T05:33:00;101360.75;;;11.68;100.00
61524;BME280;47393;38.758;-9.164;2022-11-20T05:35:07;101369.59;;;11.67;100.00
61524;BME280;47393;38.758;-9.164;2022-11-20T05:37:07;101367.41;;;11.73;100.00
61524;BME280;47393;38.758;-9.164;2022-11-20T05:39:15;101374.34;;;11.62;100.00
61524;BME280;47393;38.758;-9.164;2022-11-20T05:41:22;101380.16;;;11.67;100.00
61524;BME280;47393;38.758;-9.164;2022-11-20T05:43:23;101386.25;;;11.67;100.00
61524;BME280;47393;38.758;-9.164;2022-11-20T05:45:30;101377.19;;;11.58;100.00
61524;BME280;47393;38.758;-9.164;2022-11-20T05:47:37;101382.25;;;11.49;100.00
61524;BME280;47393;38.758;-9.164;2022-11-20T05:49:37;101386.91;;;11.45;100.00
61524;BME280;47393;38.758;-9.164;2022-11-20T05:51:44;101381.97;;;11.40;100.00
61524;BME280;47393;38.758;-9.164;2022-11-20T05:53:51;101375.22;;;11.23;100.00
61524;BME280;47393;38.758;-9.164;2022-11-20T05:56:02;101384.47;;;11.16;100.00
61524;BME280;47393;38.758;-9.164;2022-11-20T05:58:03;101387.41;;;11.12;100.00
61524;BME280;47393;38.758;-9.164;2022-11-20T06:00:10;101393.41;;;11.14;100.00
61524;BME280;47393;38.758;-9.164;2022-11-20T06:02:17;101395.16;;;11.00;100.00
61524;BME280;47393;38.758;-9.164;2022-11-20T06:04:17;101387.81;;;11.05;100.00
61524;BME280;47393;38.758;-9.164;2022-11-20T06:06:24;101389.31;;;11.10;100.00
61524;BME280;47393;38.758;-9.164;2022-11-20T06:08:31;101395.63;;;11.20;100.00
61524;BME280;47393;38.758;-9.164;2022-11-20T06:10:32;101394.03;;;11.17;100.00
61524;BME280;47393;38.758;-9.164;2022-11-20T06:12:39;101402.25;;;11.13;100.00
61524;BME280;47393;38.758;-9.164;2022-11-20T06:14:46;101406.69;;;11.12;100.00
61524;BME280;47393;38.758;-9.164;2022-11-20T06:16:46;101409.44;;;11.11;100.00
61524;BME280;47393;38.758;-9.164;2022-11-20T06:18:54;101414.63;;;11.25;100.00
61524;BME280;47393;38.758;-9.164;2022-11-20T06:21:08;101418.41;;;11.34;100.00
61524;BME280;47393;38.758;-9.164;2022-11-20T06:23:15;101416.22;;;11.40;100.00
61524;BME280;47393;38.758;-9.164;2022-11-20T06:25:15;101417.25;;;11.25;100.00
61524;BME280;47393;38.758;-9.164;2022-11-20T06:27:23;101424.81;;;11.17;100.00
61524;BME280;47393;38.758;-9.164;2022-11-20T06:29:23;101420.59;;;11.14;100.00
61524;BME280;47393;38.758;-9.164;2022-11-20T06:31:31;101426.72;;;11.15;100.00
61524;BME280;47393;38.758;-9.164;2022-11-20T06:33:38;101428.00;;;11.22;100.00
61524;BME280;47393;38.758;-9.164;2022-11-20T06:35:38;101429.44;;;11.26;100.00
61524;BME280;47393;38.758;-9.164;2022-11-20T06:37:45;101435.38;;;11.30;100.00
61524;BME280;47393;38.758;-9.164;2022-11-20T06:39:45;101434.13;;;11.35;100.00
61524;BME280;47393;38.758;-9.164;2022-11-20T06:41:53;101434.44;;;11.43;100.00
61524;BME280;47393;38.758;-9.164;2022-11-20T06:44:00;101436.84;;;11.47;100.00
61524;BME280;47393;38.758;-9.164;2022-11-20T06:46:09;101442.75;;;11.50;100.00
61524;BME280;47393;38.758;-9.164;2022-11-20T06:48:09;101445.09;;;11.55;100.00
61524;BME280;47393;38.758;-9.164;2022-11-20T06:50:17;101444.00;;;11.45;100.00
61524;BME280;47393;38.758;-9.164;2022-11-20T06:52:24;101442.13;;;11.34;100.00
61524;BME280;47393;38.758;-9.164;2022-11-20T06:54:24;101441.47;;;11.43;100.00
61524;BME280;47393;38.758;-9.164;2022-11-20T06:56:31;101434.94;;;11.62;100.00
61524;BME280;47393;38.758;-9.164;2022-11-20T06:58:38;101438.13;;;11.80;100.00
61524;BME280;47393;38.758;-9.164;2022-11-20T07:00:45;101435.41;;;11.94;100.00
61524;BME280;47393;38.758;-9.164;2022-11-20T07:02:45;101442.03;;;12.00;100.00
61524;BME280;47393;38.758;-9.164;2022-11-20T07:04:53;101429.47;;;12.03;100.00
61524;BME280;47393;38.758;-9.164;2022-11-20T07:07:00;101424.63;;;11.97;100.00
61524;BME280;47393;38.758;-9.164;2022-11-20T07:09:07;101429.28;;;12.06;100.00
61524;BME280;47393;38.758;-9.164;2022-11-20T07:11:07;101432.28;;;12.13;100.00
61524;BME280;47393;38.758;-9.164;2022-11-20T07:13:15;101422.72;;;11.99;100.00
61524;BME280;47393;38.758;-9.164;2022-11-20T07:15:22;101432.63;;;11.83;100.00
61524;BME280;47393;38.758;-9.164;2022-11-20T07:17:23;101432.75;;;11.68;100.00
61524;BME280;47393;38.758;-9.164;2022-11-20T07:19:31;101438.22;;;11.52;100.00
61524;BME280;47393;38.758;-9.164;2022-11-20T07:21:38;101439.72;;;11.43;100.00
61524;BME280;47393;38.758;-9.164;2022-11-20T07:23:45;101448.66;;;11.67;100.00
61524;BME280;47393;38.758;-9.164;2022-11-20T07:25:52;101449.28;;;11.83;100.00
61524;BME280;47393;38.758;-9.164;2022-11-20T07:27:52;101450.66;;;11.76;100.00
61524;BME280;47393;38.758;-9.164;2022-11-20T07:30:00;101448.88;;;11.64;100.00
61524;BME280;47393;38.758;-9.164;2022-11-20T07:32:00;101456.03;;;11.62;100.00
61524;BME280;47393;38.758;-9.164;2022-11-20T07:34:08;101443.41;;;11.54;100.00
61524;BME280;47393;38.758;-9.164;2022-11-20T07:36:15;101454.16;;;11.51;100.00
61524;BME280;47393;38.758;-9.164;2022-11-20T07:38:15;101455.22;;;11.74;100.00
61524;BME280;47393;38.758;-9.164;2022-11-20T07:40:22;101458.44;;;11.90;100.00
61524;BME280;47393;38.758;-9.164;2022-11-20T07:42:22;101467.88;;;11.94;100.00
61524;BME280;47393;38.758;-9.164;2022-11-20T07:44:30;101469.84;;;11.91;100.00
61524;BME280;47393;38.758;-9.164;2022-11-20T07:46:37;101477.88;;;11.89;100.00
61524;BME280;47393;38.758;-9.164;2022-11-20T07:48:37;101476.53;;;11.97;100.00
61524;BME280;47393;38.758;-9.164;2022-11-20T07:50:45;101480.31;;;12.05;100.00
61524;BME280;47393;38.758;-9.164;2022-11-20T07:52:52;101491.69;;;12.06;100.00
61524;BME280;47393;38.758;-9.164;2022-11-20T07:54:52;101494.75;;;12.13;100.00
61524;BME280;47393;38.758;-9.164;2022-11-20T07:56:59;101497.72;;;12.21;100.00
61524;BME280;47393;38.758;-9.164;2022-11-20T07:58:59;101504.03;;;12.31;100.00
61524;BME280;47393;38.758;-9.164;2022-11-20T08:01:06;101502.63;;;12.38;100.00
61524;BME280;47393;38.758;-9.164;2022-11-20T08:03:14;101505.13;;;12.53;100.00
61524;BME280;47393;38.758;-9.164;2022-11-20T08:05:14;101506.16;;;12.63;100.00
61524;BME280;47393;38.758;-9.164;2022-11-20T08:07:22;101513.50;;;12.71;100.00
61524;BME280;47393;38.758;-9.164;2022-11-20T08:09:29;101514.47;;;12.70;100.00
61524;BME280;47393;38.758;-9.164;2022-11-20T08:11:29;101524.13;;;12.82;100.00
61524;BME280;47393;38.758;-9.164;2022-11-20T08:13:55;101520.09;;;12.89;100.00
61524;BME280;47393;38.758;-9.164;2022-11-20T08:16:13;101520.56;;;13.07;100.00
61524;BME280;47393;38.758;-9.164;2022-11-20T08:18:21;101522.31;;;13.20;100.00
61524;BME280;47393;38.758;-9.164;2022-11-20T08:20:21;101529.53;;;13.29;100.00
61524;BME280;47393;38.758;-9.164;2022-11-20T08:22:29;101520.97;;;13.38;100.00
61524;BME280;47393;38.758;-9.164;2022-11-20T08:24:29;101523.53;;;13.51;100.00
61524;BME280;47393;38.758;-9.164;2022-11-20T08:26:37;101524.63;;;13.60;100.00
61524;BME280;47393;38.758;-9.164;2022-11-20T08:28:45;101525.84;;;13.67;100.00
61524;BME280;47393;38.758;-9.164;2022-11-20T08:30:45;101529.19;;;13.69;100.00
61524;BME280;47393;38.758;-9.164;2022-11-20T08:32:53;101531.16;;;13.90;100.00
61524;BME280;47393;38.758;-9.164;2022-11-20T08:34:54;101528.16;;;14.40;100.00
61524;BME280;47393;38.758;-9.164;2022-11-20T08:37:01;101532.97;;;14.68;100.00
61524;BME280;47393;38.758;-9.164;2022-11-20T08:39:11;101541.41;;;15.17;100.00
61524;BME280;47393;38.758;-9.164;2022-11-20T08:41:11;101538.13;;;15.67;100.00
61524;BME280;47393;38.758;-9.164;2022-11-20T08:43:31;101532.50;;;16.34;100.00
61524;BME280;47393;38.758;-9.164;2022-11-20T08:45:31;101537.59;;;17.07;100.00
61524;BME280;47393;38.758;-9.164;2022-11-20T08:47:39;101543.81;;;17.84;100.00
61524;BME280;47393;38.758;-9.164;2022-11-20T08:49:46;101538.63;;;18.58;100.00
61524;BME280;47393;38.758;-9.164;2022-11-20T08:51:53;101539.91;;;18.81;100.00
61524;BME280;47393;38.758;-9.164;2022-11-20T08:54:00;101545.13;;;19.19;100.00
61524;BME280;47393;38.758;-9.164;2022-11-20T08:56:07;101553.50;;;19.42;100.00
61524;BME280;47393;38.758;-9.164;2022-11-20T08:58:15;101549.75;;;19.53;100.00
61524;BME280;47393;38.758;-9.164;2022-11-20T09:00:15;101555.44;;;19.58;100.00
61524;BME280;47393;38.758;-9.164;2022-11-20T09:02:25;101559.81;;;19.85;100.00
61524;BME280;47393;38.758;-9.164;2022-11-20T09:04:33;101567.31;;;20.08;100.00
61524;BME280;47393;38.758;-9.164;2022-11-20T09:06:40;101566.06;;;20.20;100.00
61524;BME280;47393;38.758;-9.164;2022-11-20T09:08:47;101563.28;;;20.38;100.00
61524;BME280;47393;38.758;-9.164;2022-11-20T09:10:50;101574.47;;;20.68;100.00
61524;BME280;47393;38.758;-9.164;2022-11-20T09:12:58;101567.72;;;21.23;100.00
61524;BME280;47393;38.758;-9.164;2022-11-20T09:15:05;101571.56;;;21.78;100.00
61524;BME280;47393;38.758;-9.164;2022-11-20T09:17:12;101561.66;;;22.04;100.00
61524;BME280;47393;38.758;-9.164;2022-11-20T09:19:19;101572.22;;;22.53;100.00
61524;BME280;47393;38.758;-9.164;2022-11-20T09:21:19;101572.88;;;22.87;100.00
61524;BME280;47393;38.758;-9.164;2022-11-20T09:23:30;101580.38;;;22.68;88.99
61524;BME280;47393;38.758;-9.164;2022-11-20T09:25:34;101584.22;;;22.97;94.68
61524;BME280;47393;38.758;-9.164;2022-11-20T09:27:41;101593.03;;;22.83;92.33
61524;BME280;47393;38.758;-9.164;2022-11-20T09:29:48;101590.06;;;23.01;88.73
61524;BME280;47393;38.758;-9.164;2022-11-20T09:31:49;101592.78;;;22.92;82.22
61524;BME280;47393;38.758;-9.164;2022-11-20T09:33:57;101601.44;;;22.23;78.54
61524;BME280;47393;38.758;-9.164;2022-11-20T09:35:57;101598.03;;;22.86;80.32
61524;BME280;47393;38.758;-9.164;2022-11-20T09:38:05;101605.63;;;22.34;77.32
61524;BME280;47393;38.758;-9.164;2022-11-20T09:40:06;101606.53;;;22.58;77.31
61524;BME280;47393;38.758;-9.164;2022-11-20T09:42:21;101605.25;;;23.40;74.06
61524;BME280;47393;38.758;-9.164;2022-11-20T09:47:01;101616.94;;;23.24;73.36
61524;BME280;47393;38.758;-9.164;2022-11-20T09:52:15;101624.47;;;22.97;73.80
61524;BME280;47393;38.758;-9.164;2022-11-20T09:55:58;101617.78;;;22.93;74.51
61524;BME280;47393;38.758;-9.164;2022-11-20T09:58:07;101611.59;;;23.47;72.22
61524;BME280;47393;38.758;-9.164;2022-11-20T10:00:14;101616.38;;;23.75;69.08
61524;BME280;47393;38.758;-9.164;2022-11-20T10:04:24;101630.06;;;23.19;71.22
61524;BME280;47393;38.758;-9.164;2022-11-20T10:06:33;101622.16;;;23.87;70.48
61524;BME280;47393;38.758;-9.164;2022-11-20T10:08:50;101628.84;;;23.91;69.67
61524;BME280;47393;38.758;-9.164;2022-11-20T10:18:03;101639.03;;;25.36;57.10
61524;BME280;47393;38.758;-9.164;2022-11-20T10:20:18;101639.53;;;24.44;59.88
61524;BME280;47393;38.758;-9.164;2022-11-20T10:24:57;101645.25;;;25.00;60.93
61524;BME280;47393;38.758;-9.164;2022-11-20T10:29:34;101640.13;;;26.55;49.21
61524;BME280;47393;38.758;-9.164;2022-11-20T10:31:46;101632.47;;;27.27;48.24
61524;BME280;47393;38.758;-9.164;2022-11-20T10:33:56;101630.22;;;27.85;47.71
61524;BME280;47393;38.758;-9.164;2022-11-20T10:36:14;101627.16;;;28.67;45.61
61524;BME280;47393;38.758;-9.164;2022-11-20T10:38:24;101632.28;;;28.16;45.88
61524;BME280;47393;38.758;-9.164;2022-11-20T10:40:41;101633.72;;;27.18;48.66
61524;BME280;47393;38.758;-9.164;2022-11-20T10:44:52;101627.97;;;27.61;47.03
61524;BME280;47393;38.758;-9.164;2022-11-20T10:47:18;101628.78;;;27.62;46.09
61524;BME280;47393;38.758;-9.164;2022-11-20T10:49:18;101632.03;;;25.64;47.63
61524;BME280;47393;38.758;-9.164;2022-11-20T10:53:48;101632.78;;;25.79;48.95
61524;BME280;47393;38.758;-9.164;2022-11-20T10:56:02;101626.28;;;23.97;52.28
61524;BME280;47393;38.758;-9.164;2022-11-20T11:00:19;101635.47;;;23.02;55.72
61524;BME280;47393;38.758;-9.164;2022-11-20T11:02:34;101623.66;;;22.57;56.58
61524;BME280;47393;38.758;-9.164;2022-11-20T11:04:46;101628.69;;;23.23;55.27
61524;BME280;47393;38.758;-9.164;2022-11-20T11:06:47;101630.28;;;23.55;53.55
61524;BME280;47393;38.758;-9.164;2022-11-20T11:08:56;101624.03;;;23.63;53.20
61524;BME280;47393;38.758;-9.164;2022-11-20T11:11:24;101620.88;;;23.13;54.52
61524;BME280;47393;38.758;-9.164;2022-11-20T11:13:27;101614.31;;;23.62;54.02
61524;BME280;47393;38.758;-9.164;2022-11-20T11:15:49;101611.16;;;22.41;55.98